aviador You're here:

KAAF Decoded Metar

APALACHICOLA in FL, USA
Report Time2018-02-25 14:53:00
UTC Time2018-02-25 15:39:49
Flight Rules lifr LIFR
Wind170° at 08 kt
W.Decomp.*RWY 18: 7.9 kt HW 1 kt LCW
RWY 14: 6.7 kt HW 4.4 kt RCW
RWY 24: 3.1 kt HW 7.4 kt LCW
W.Rank170° ranks 10
Current wind is above 170° avg. (7.9)
Visibility9999 m
Phenomena:N/A
Clouds:Overcast 004 Hf
Ceiling400 ft
Temp23°C (ISA +8)
Dew Point23°C (100% RH)
QNH1021 hPa
Density Alt1,050 ft
Elevation16 ft
Report Wrong Elevation
Raw Report
KAAF 251453Z AUTO 17008KT 9SM OVC004 23/23 A3014 RMK AO2 RAE1358
SLP206 P0000 60004 T02280228 53007=

Extra information for KAAF:More info

Metar Taf Metar & Taf Last 4 Metars F.Rules Stats Wind Profile Meteogram Temp Stats Airport Information Weather charts Add Link Nearby VenuesMetar ALERT Operation Metar Decoded Social comments

AIRNAV info for KAAF